Time;durP1;ratioP1;P1;durP2;ratioP2;P2;SDS_P1;SDS_P2;PMS_P1;PMS_P2;Temp;Humidity;BMP_temperature;BMP_pressure;BME280_temperature;BME280_humidity;BME280_pressure;Samples;Min_cycle;Max_cycle;Signal;HPM_P1;HPM_P2
2023/03/15 00:00:09;;;;;;;3.50;1.43;;;;;;;;;;4965793;28;20237;-87
2023/03/15 00:02:38;;;;;;;6.63;1.80;;;;;;;;;;4938270;28;20250;-86
2023/03/15 00:05:08;;;;;;;5.43;1.60;;;;;;;;;;4937467;28;20227;-87
2023/03/15 00:07:34;;;;;;;4.43;1.60;;;;;;;;;;4950404;28;20298;-84
2023/03/15 00:10:03;;;;;;;4.50;1.30;;;;;;;;;;4957233;28;20207;-88
2023/03/15 00:12:29;;;;;;;6.83;1.63;;;;;;;;;;4959690;28;20229;-88
2023/03/15 00:14:59;;;;;;;5.07;1.90;;;;;;;;;;4968646;28;20198;-87
2023/03/15 00:17:24;;;;;;;6.23;1.70;;;;;;;;;;4955185;28;20222;-87
2023/03/15 00:19:50;;;;;;;6.03;1.43;;;;;;;;;;4969415;28;20218;-86
2023/03/15 00:22:15;;;;;;;4.80;1.47;;;;;;;;;;4992813;28;20210;-88
2023/03/15 00:24:41;;;;;;;7.43;1.57;;;;;;;;;;4966262;28;20777;-87
2023/03/15 00:27:07;;;;;;;3.97;1.40;;;;;;;;;;4965205;28;20222;-86
2023/03/15 00:29:32;;;;;;;2.77;1.20;;;;;;;;;;4948379;28;20264;-88
2023/03/15 00:31:58;;;;;;;3.93;1.40;;;;;;;;;;4963590;28;20227;-86
2023/03/15 00:34:28;;;;;;;6.30;2.07;;;;;;;;;;4930335;28;20218;-88
2023/03/15 00:36:54;;;;;;;4.33;1.30;;;;;;;;;;4953089;28;20223;-87
2023/03/15 00:39:24;;;;;;;4.77;1.57;;;;;;;;;;4952663;28;20223;-87
2023/03/15 00:41:55;;;;;;;3.07;1.27;;;;;;;;;;4948611;28;20218;-87
2023/03/15 00:44:25;;;;;;;2.53;1.30;;;;;;;;;;4951185;28;20317;-89
2023/03/15 00:46:50;;;;;;;4.77;1.33;;;;;;;;;;4952852;28;20214;-84
2023/03/15 00:49:16;;;;;;;4.60;1.70;;;;;;;;;;4970870;28;20222;-86
2023/03/15 00:51:44;;;;;;;4.00;1.40;;;;;;;;;;4962812;28;20226;-87
2023/03/15 00:54:12;;;;;;;4.67;1.40;;;;;;;;;;4952734;28;20753;-85
2023/03/15 00:56:38;;;;;;;10.97;1.80;;;;;;;;;;4956756;28;20219;-85
2023/03/15 00:59:06;;;;;;;6.10;1.73;;;;;;;;;;4958910;28;20237;-88
2023/03/15 01:01:34;;;;;;;4.67;1.40;;;;;;;;;;4951868;28;20214;-88
2023/03/15 01:04:02;;;;;;;4.73;1.37;;;;;;;;;;4952920;28;20215;-87
2023/03/15 01:06:30;;;;;;;2.93;1.40;;;;;;;;;;4954334;28;20327;-86
2023/03/15 01:08:57;;;;;;;5.97;1.50;;;;;;;;;;4987983;28;20215;-86
2023/03/15 01:11:27;;;;;;;8.23;1.87;;;;;;;;;;4982697;28;20223;-86
2023/03/15 01:13:56;;;;;;;3.63;1.40;;;;;;;;;;4977825;28;20225;-87
2023/03/15 01:16:22;;;;;;;3.80;1.37;;;;;;;;;;4954968;28;20607;-88
2023/03/15 01:18:47;;;;;;;5.87;1.70;;;;;;;;;;4954477;28;20226;-86
2023/03/15 01:21:20;;;;;;;3.10;1.53;;;;;;;;;;4959268;28;20258;-87
2023/03/15 01:23:48;;;;;;;6.47;1.57;;;;;;;;;;4965328;28;20277;-88
2023/03/15 01:26:15;;;;;;;3.70;1.47;;;;;;;;;;4932002;28;20262;-85
2023/03/15 01:28:42;;;;;;;4.00;1.40;;;;;;;;;;4948646;28;20655;-86
2023/03/15 01:31:22;;;;;;;6.30;2.10;;;;;;;;;;4968305;28;20219;-86
2023/03/15 01:33:48;;;;;;;4.50;1.83;;;;;;;;;;4919190;28;20228;-88
2023/03/15 01:36:14;;;;;;;5.27;2.40;;;;;;;;;;4966728;28;20215;-87
2023/03/15 01:38:39;;;;;;;5.50;2.40;;;;;;;;;;4937070;28;20210;-86
2023/03/15 01:41:05;;;;;;;5.97;2.20;;;;;;;;;;4954966;28;20650;-87
2023/03/15 01:43:31;;;;;;;10.47;3.30;;;;;;;;;;4951028;28;20238;-87
2023/03/15 01:46:14;;;;;;;8.43;2.63;;;;;;;;;;4959982;28;20371;-84
2023/03/15 01:48:43;;;;;;;8.03;3.30;;;;;;;;;;4975977;28;20708;-88
2023/03/15 01:51:18;;;;;;;7.93;3.47;;;;;;;;;;4917910;28;20234;-88
2023/03/15 01:53:50;;;;;;;4.87;2.30;;;;;;;;;;4984409;28;20226;-87
2023/03/15 01:56:17;;;;;;;6.83;2.57;;;;;;;;;;4923315;28;20226;-86
2023/03/15 01:58:43;;;;;;;3.80;1.93;;;;;;;;;;4935134;28;20273;-88
2023/03/15 02:01:09;;;;;;;6.07;2.03;;;;;;;;;;4946437;28;20223;-88
2023/03/15 02:03:46;;;;;;;5.23;2.40;;;;;;;;;;4957830;28;20222;-88
2023/03/15 02:06:18;;;;;;;8.13;2.90;;;;;;;;;;4962276;28;20825;-88
2023/03/15 02:08:52;;;;;;;9.20;3.80;;;;;;;;;;4934445;28;20213;-87
2023/03/15 02:11:19;;;;;;;11.23;3.87;;;;;;;;;;4965251;28;20257;-87
2023/03/15 02:13:51;;;;;;;6.87;2.30;;;;;;;;;;4944635;28;20217;-87
2023/03/15 02:16:19;;;;;;;5.50;2.00;;;;;;;;;;4964697;28;20225;-88
2023/03/15 02:18:51;;;;;;;4.20;1.80;;;;;;;;;;4981082;28;20240;-88
2023/03/15 02:21:23;;;;;;;9.20;2.30;;;;;;;;;;4943343;28;20253;-89
2023/03/15 02:23:54;;;;;;;2.73;1.60;;;;;;;;;;4963687;28;20270;-86
2023/03/15 02:26:29;;;;;;;5.33;2.00;;;;;;;;;;4964580;28;20219;-89
2023/03/15 02:28:57;;;;;;;5.00;1.70;;;;;;;;;;4981781;28;20214;-86
2023/03/15 02:31:23;;;;;;;4.47;1.90;;;;;;;;;;4966316;28;20263;-87
2023/03/15 02:33:52;;;;;;;5.87;1.80;;;;;;;;;;4934921;28;20268;-84
2023/03/15 02:36:24;;;;;;;2.33;1.30;;;;;;;;;;4920485;28;20223;-86
2023/03/15 02:38:49;;;;;;;5.40;1.80;;;;;;;;;;4949111;28;20254;-84
2023/03/15 02:41:34;;;;;;;5.83;1.90;;;;;;;;;;4932709;28;20249;-88
2023/03/15 02:44:03;;;;;;;6.00;1.50;;;;;;;;;;4965567;28;20266;-86
2023/03/15 02:46:28;;;;;;;3.87;1.63;;;;;;;;;;4944047;28;20628;-88
2023/03/15 02:48:56;;;;;;;3.00;1.33;;;;;;;;;;4953485;28;20220;-86
2023/03/15 02:51:23;;;;;;;4.67;1.77;;;;;;;;;;4922073;28;20226;-84
2023/03/15 02:53:49;;;;;;;3.07;1.50;;;;;;;;;;4964031;28;20218;-86
2023/03/15 02:56:15;;;;;;;5.60;1.53;;;;;;;;;;4944867;28;20225;-88
2023/03/15 02:58:46;;;;;;;4.60;1.60;;;;;;;;;;4965063;28;20218;-88
2023/03/15 03:01:14;;;;;;;3.90;1.50;;;;;;;;;;4966883;28;20226;-87
2023/03/15 03:03:45;;;;;;;3.20;1.50;;;;;;;;;;4962180;28;20225;-87
2023/03/15 03:06:12;;;;;;;3.53;1.33;;;;;;;;;;4948385;28;20739;-84
2023/03/15 03:08:45;;;;;;;4.70;1.77;;;;;;;;;;4968243;28;20220;-84
2023/03/15 03:11:13;;;;;;;7.20;2.03;;;;;;;;;;4970960;28;20280;-87
2023/03/15 03:13:39;;;;;;;2.17;1.27;;;;;;;;;;4960242;28;20658;-89
2023/03/15 03:16:07;;;;;;;3.90;1.50;;;;;;;;;;4967491;28;20325;-88
2023/03/15 03:18:37;;;;;;;3.77;1.50;;;;;;;;;;4947772;28;20218;-88
2023/03/15 03:21:05;;;;;;;2.97;1.30;;;;;;;;;;4967721;28;20254;-89
2023/03/15 03:23:36;;;;;;;6.03;1.77;;;;;;;;;;4949942;28;20231;-86
2023/03/15 03:26:16;;;;;;;3.43;1.60;;;;;;;;;;4951356;28;20715;-88
2023/03/15 03:28:44;;;;;;;2.50;1.20;;;;;;;;;;4924061;28;20258;-88
2023/03/15 03:31:17;;;;;;;8.23;1.47;;;;;;;;;;4933445;28;20211;-88
2023/03/15 03:33:43;;;;;;;4.67;1.70;;;;;;;;;;4927054;28;20249;-87
2023/03/15 03:36:08;;;;;;;3.33;1.60;;;;;;;;;;4921522;28;20230;-87
2023/03/15 03:38:34;;;;;;;10.97;2.20;;;;;;;;;;4938117;28;20225;-85
2023/03/15 03:41:00;;;;;;;6.97;2.33;;;;;;;;;;4939780;28;20241;-87
2023/03/15 03:43:30;;;;;;;3.43;2.10;;;;;;;;;;4963310;28;20281;-86
2023/03/15 03:45:55;;;;;;;7.00;2.10;;;;;;;;;;4934786;28;20218;-88
2023/03/15 03:48:21;;;;;;;3.43;2.50;;;;;;;;;;4957284;28;20214;-88
2023/03/15 03:50:47;;;;;;;8.87;2.60;;;;;;;;;;4990455;28;20201;-89
2023/03/15 03:53:15;;;;;;;3.97;2.30;;;;;;;;;;4954233;28;20222;-87
2023/03/15 03:55:41;;;;;;;3.70;2.10;;;;;;;;;;4958166;28;20214;-88
2023/03/15 03:58:07;;;;;;;6.57;2.60;;;;;;;;;;4984191;28;20286;-86
2023/03/15 04:00:42;;;;;;;4.50;2.40;;;;;;;;;;4973095;28;20226;-86
2023/03/15 04:03:10;;;;;;;6.00;2.63;;;;;;;;;;4921293;28;20233;-89
2023/03/15 04:05:38;;;;;;;7.17;2.70;;;;;;;;;;4926710;28;20225;-89
2023/03/15 04:08:06;;;;;;;3.87;2.30;;;;;;;;;;4938485;28;20210;-90
2023/03/15 04:10:39;;;;;;;5.23;2.80;;;;;;;;;;4953755;28;20736;-85
2023/03/15 04:13:08;;;;;;;5.50;2.47;;;;;;;;;;4981333;28;20211;-86
2023/03/15 04:15:34;;;;;;;4.00;2.20;;;;;;;;;;4966604;28;20221;-88
2023/03/15 04:18:04;;;;;;;9.00;2.90;;;;;;;;;;4968431;28;20273;-88
2023/03/15 04:20:36;;;;;;;4.07;2.60;;;;;;;;;;4946215;28;20647;-89
2023/03/15 04:23:02;;;;;;;5.13;2.80;;;;;;;;;;4957262;28;20226;-87
2023/03/15 04:25:58;;;;;;;6.73;2.70;;;;;;;;;;4964178;28;20225;-90
2023/03/15 04:28:53;;;;;;;3.97;2.30;;;;;;;;;;4970361;28;20222;-86
2023/03/15 04:31:49;;;;;;;6.03;2.80;;;;;;;;;;4985450;28;20222;-88
2023/03/15 04:34:31;;;;;;;4.47;2.83;;;;;;;;;;4965712;28;20206;-86
2023/03/15 04:37:25;;;;;;;7.40;2.67;;;;;;;;;;4978484;28;20234;-87
2023/03/15 04:40:22;;;;;;;5.83;2.70;;;;;;;;;;4965313;28;20254;-83
2023/03/15 04:43:13;;;;;;;5.40;3.00;;;;;;;;;;4987201;28;20230;-87
2023/03/15 04:45:48;;;;;;;7.40;3.03;;;;;;;;;;4962770;28;20220;-87
2023/03/15 04:48:37;;;;;;;6.07;2.50;;;;;;;;;;4982826;28;20198;-86
2023/03/15 04:51:22;;;;;;;5.83;3.00;;;;;;;;;;4964255;28;20209;-86
2023/03/15 04:54:01;;;;;;;6.10;3.20;;;;;;;;;;4958114;28;20273;-86
2023/03/15 04:56:58;;;;;;;8.97;2.87;;;;;;;;;;4960322;28;20210;-85
2023/03/15 04:59:42;;;;;;;2.70;2.30;;;;;;;;;;4977408;28;20229;-86
2023/03/15 05:02:38;;;;;;;3.67;2.27;;;;;;;;;;4972185;28;20229;-86
2023/03/15 05:05:24;;;;;;;4.87;2.67;;;;;;;;;;4993624;28;20227;-88
2023/03/15 05:08:22;;;;;;;4.30;2.50;;;;;;;;;;4958988;28;20226;-86
2023/03/15 05:11:08;;;;;;;5.90;2.90;;;;;;;;;;4954608;28;20733;-88
2023/03/15 05:13:52;;;;;;;5.30;3.13;;;;;;;;;;4953783;28;20768;-88
2023/03/15 05:16:35;;;;;;;5.53;3.10;;;;;;;;;;4949244;28;20229;-88
2023/03/15 05:19:35;;;;;;;9.97;3.50;;;;;;;;;;4951759;28;20230;-88
2023/03/15 05:22:27;;;;;;;8.53;3.17;;;;;;;;;;4968694;28;20948;-88
2023/03/15 05:25:11;;;;;;;7.60;3.40;;;;;;;;;;4971544;28;20273;-88
2023/03/15 05:28:17;;;;;;;3.90;2.57;;;;;;;;;;4962251;28;20230;-87
2023/03/15 05:31:03;;;;;;;4.33;3.13;;;;;;;;;;4964781;28;20240;-87
2023/03/15 05:33:31;;;;;;;6.07;3.50;;;;;;;;;;4962405;28;20242;-88
2023/03/15 05:36:13;;;;;;;4.93;2.93;;;;;;;;;;4971016;28;20234;-88
2023/03/15 05:39:02;;;;;;;9.13;3.53;;;;;;;;;;4973886;28;20230;-87
2023/03/15 05:41:44;;;;;;;4.13;3.00;;;;;;;;;;4950220;28;20344;-88
2023/03/15 05:44:27;;;;;;;7.77;3.40;;;;;;;;;;4962813;28;20222;-85
2023/03/15 05:47:14;;;;;;;5.70;3.63;;;;;;;;;;4988432;28;20232;-88
2023/03/15 05:50:06;;;;;;;5.07;3.27;;;;;;;;;;4953419;28;20226;-87
2023/03/15 05:52:55;;;;;;;5.43;3.40;;;;;;;;;;4932918;28;20365;-86
2023/03/15 05:55:37;;;;;;;4.80;3.10;;;;;;;;;;4979410;28;20226;-90
2023/03/15 05:58:09;;;;;;;13.20;3.60;;;;;;;;;;4945112;28;20704;-87
2023/03/15 06:01:04;;;;;;;6.63;3.10;;;;;;;;;;4962521;28;21039;-87
2023/03/15 06:03:54;;;;;;;8.10;3.43;;;;;;;;;;4943873;28;20306;-87
2023/03/15 06:06:24;;;;;;;6.10;3.67;;;;;;;;;;4914391;28;20218;-88
2023/03/15 06:08:50;;;;;;;6.37;3.70;;;;;;;;;;4957420;28;20281;-87
2023/03/15 06:11:16;;;;;;;4.80;3.50;;;;;;;;;;4968634;28;20301;-88
2023/03/15 06:13:41;;;;;;;6.50;3.50;;;;;;;;;;4984620;28;20280;-86
2023/03/15 06:16:14;;;;;;;5.10;3.87;;;;;;;;;;4963217;28;20226;-86
2023/03/15 06:18:46;;;;;;;9.00;4.00;;;;;;;;;;4968428;28;20223;-89
2023/03/15 06:21:14;;;;;;;5.47;4.20;;;;;;;;;;4951079;28;20247;-87
2023/03/15 06:23:40;;;;;;;8.23;4.10;;;;;;;;;;4953495;28;20714;-88
2023/03/15 06:26:06;;;;;;;6.40;3.90;;;;;;;;;;4964812;28;20227;-87
2023/03/15 06:28:33;;;;;;;5.20;3.57;;;;;;;;;;4976894;28;20233;-86
2023/03/15 06:31:09;;;;;;;7.20;4.90;;;;;;;;;;4969615;28;20258;-88
2023/03/15 06:33:41;;;;;;;6.07;4.33;;;;;;;;;;4930038;28;20234;-88
2023/03/15 06:36:09;;;;;;;9.23;4.53;;;;;;;;;;4950049;28;20303;-87
2023/03/15 06:38:34;;;;;;;6.53;3.57;;;;;;;;;;4942214;28;20222;-87
2023/03/15 06:41:00;;;;;;;4.30;3.37;;;;;;;;;;4958214;28;20707;-88
2023/03/15 06:43:26;;;;;;;6.80;3.53;;;;;;;;;;4980229;28;20232;-88
2023/03/15 06:45:57;;;;;;;7.40;3.93;;;;;;;;;;4962970;28;20218;-86
2023/03/15 06:48:29;;;;;;;5.17;3.60;;;;;;;;;;4955679;28;20264;-88
2023/03/15 06:50:56;;;;;;;5.47;3.70;;;;;;;;;;4951797;28;20223;-87
2023/03/15 06:53:22;;;;;;;5.63;3.77;;;;;;;;;;4953932;28;20224;-87
2023/03/15 06:55:51;;;;;;;5.20;3.73;;;;;;;;;;4948017;28;20586;-87
2023/03/15 06:58:16;;;;;;;6.47;4.13;;;;;;;;;;4925111;28;20641;-85
2023/03/15 07:00:43;;;;;;;6.80;4.40;;;;;;;;;;4973601;28;20346;-88
2023/03/15 07:03:09;;;;;;;5.30;4.03;;;;;;;;;;4966315;28;20711;-87
2023/03/15 07:05:39;;;;;;;6.27;4.47;;;;;;;;;;4947719;28;20252;-88
2023/03/15 07:08:07;;;;;;;6.17;4.73;;;;;;;;;;4965947;28;20849;-87
2023/03/15 07:10:35;;;;;;;6.40;4.80;;;;;;;;;;4938504;28;20223;-88
2023/03/15 07:13:04;;;;;;;6.60;4.10;;;;;;;;;;4947888;28;20714;-87
2023/03/15 07:15:32;;;;;;;6.33;4.63;;;;;;;;;;4947796;28;20704;-89
2023/03/15 07:17:57;;;;;;;10.47;4.77;;;;;;;;;;4961745;28;20211;-88
2023/03/15 07:20:23;;;;;;;5.43;4.47;;;;;;;;;;4977114;28;20797;-88
2023/03/15 07:22:48;;;;;;;7.57;4.33;;;;;;;;;;4974243;28;20223;-88
2023/03/15 07:25:14;;;;;;;5.00;4.50;;;;;;;;;;4967797;28;20691;-87
2023/03/15 07:27:39;;;;;;;5.50;4.33;;;;;;;;;;4959532;28;20217;-88
2023/03/15 07:30:07;;;;;;;8.53;5.40;;;;;;;;;;4980279;28;20221;-88
2023/03/15 07:32:37;;;;;;;7.90;5.13;;;;;;;;;;4950277;28;20269;-89
2023/03/15 07:35:05;;;;;;;6.80;4.60;;;;;;;;;;4911916;28;20604;-87
2023/03/15 07:37:31;;;;;;;7.83;4.70;;;;;;;;;;4962285;28;20611;-88
2023/03/15 07:39:59;;;;;;;4.20;3.77;;;;;;;;;;4959255;28;20230;-89
2023/03/15 07:42:24;;;;;;;4.93;4.27;;;;;;;;;;4924246;28;20230;-89
2023/03/15 07:44:54;;;;;;;7.63;4.60;;;;;;;;;;4957289;28;20746;-89
2023/03/15 07:47:22;;;;;;;8.13;4.47;;;;;;;;;;4958209;28;20226;-88
2023/03/15 07:49:49;;;;;;;4.80;4.33;;;;;;;;;;4959786;28;20305;-89
2023/03/15 07:52:17;;;;;;;6.13;4.63;;;;;;;;;;4951914;28;20230;-87
2023/03/15 07:54:46;;;;;;;5.17;4.03;;;;;;;;;;4981566;28;20229;-88
2023/03/15 07:57:11;;;;;;;8.30;4.20;;;;;;;;;;4952471;28;20242;-85
2023/03/15 07:59:37;;;;;;;5.10;4.03;;;;;;;;;;4961389;28;21179;-87
2023/03/15 08:02:02;;;;;;;6.47;3.90;;;;;;;;;;4955649;28;20222;-87
2023/03/15 08:04:30;;;;;;;5.10;3.83;;;;;;;;;;4946443;28;20223;-88
2023/03/15 08:06:58;;;;;;;4.10;3.67;;;;;;;;;;4947148;28;20302;-87
2023/03/15 08:09:24;;;;;;;4.43;3.67;;;;;;;;;;4950802;28;20595;-88
2023/03/15 08:11:49;;;;;;;4.43;3.27;;;;;;;;;;4967300;28;20230;-87
2023/03/15 08:14:15;;;;;;;6.53;3.13;;;;;;;;;;4971395;28;20218;-86
2023/03/15 08:16:43;;;;;;;7.93;3.23;;;;;;;;;;4932696;28;20217;-89
2023/03/15 08:19:13;;;;;;;4.93;3.20;;;;;;;;;;4970536;28;20214;-90
2023/03/15 08:21:38;;;;;;;9.80;3.03;;;;;;;;;;4979441;28;20237;-86
2023/03/15 08:24:04;;;;;;;6.40;2.80;;;;;;;;;;4968671;28;20230;-88
2023/03/15 08:26:34;;;;;;;3.57;2.13;;;;;;;;;;4973741;28;20214;-87
2023/03/15 08:29:02;;;;;;;3.50;2.00;;;;;;;;;;4946900;28;20246;-86
2023/03/15 08:31:28;;;;;;;4.87;2.40;;;;;;;;;;4954093;28;20229;-87
2023/03/15 08:33:56;;;;;;;3.00;1.77;;;;;;;;;;4956273;28;20312;-87
2023/03/15 08:36:26;;;;;;;9.63;5.43;;;;;;;;;;4974807;28;20226;-87
2023/03/15 08:38:52;;;;;;;5.57;2.43;;;;;;;;;;4954739;28;20695;-86
2023/03/15 08:41:17;;;;;;;4.17;1.90;;;;;;;;;;4970766;28;20219;-88
2023/03/15 08:43:45;;;;;;;5.93;3.00;;;;;;;;;;4958745;28;20254;-86
2023/03/15 08:46:12;;;;;;;7.70;2.93;;;;;;;;;;4956447;28;20226;-89
2023/03/15 08:48:40;;;;;;;6.93;2.33;;;;;;;;;;4965146;28;20902;-88
2023/03/15 08:51:07;;;;;;;6.57;2.73;;;;;;;;;;4971083;28;20837;-87
2023/03/15 08:53:36;;;;;;;9.87;5.53;;;;;;;;;;4951120;28;20226;-89
2023/03/15 08:56:04;;;;;;;5.40;3.20;;;;;;;;;;4983769;28;20249;-88
2023/03/15 08:58:33;;;;;;;3.40;2.00;;;;;;;;;;4985273;28;20214;-86
2023/03/15 09:01:01;;;;;;;7.93;4.53;;;;;;;;;;4973845;28;20231;-88
2023/03/15 09:03:26;;;;;;;7.13;2.93;;;;;;;;;;4970574;28;20264;-86
2023/03/15 09:05:56;;;;;;;8.50;3.03;;;;;;;;;;4959821;28;20242;-83
2023/03/15 09:08:25;;;;;;;6.10;2.87;;;;;;;;;;4983384;28;20250;-84
2023/03/15 09:10:54;;;;;;;7.17;3.43;;;;;;;;;;4971086;28;20222;-86
2023/03/15 09:13:22;;;;;;;4.47;2.30;;;;;;;;;;4968012;28;20230;-85
2023/03/15 09:15:52;;;;;;;2.37;1.47;;;;;;;;;;4968836;28;20224;-88
2023/03/15 09:18:18;;;;;;;7.00;2.27;;;;;;;;;;4966168;28;20223;-85
2023/03/15 09:20:43;;;;;;;3.57;1.80;;;;;;;;;;4968335;28;20229;-86
2023/03/15 09:23:09;;;;;;;2.53;1.37;;;;;;;;;;4977709;28;20218;-85
2023/03/15 09:25:37;;;;;;;2.80;1.47;;;;;;;;;;4981604;28;20235;-87
2023/03/15 09:28:05;;;;;;;3.53;1.40;;;;;;;;;;4948984;28;20908;-87
2023/03/15 09:30:34;;;;;;;1.97;1.17;;;;;;;;;;4961012;28;20305;-86
2023/03/15 09:32:59;;;;;;;3.50;1.20;;;;;;;;;;4957305;28;20224;-87
2023/03/15 09:35:25;;;;;;;5.50;1.50;;;;;;;;;;4951409;28;20866;-87
2023/03/15 09:37:50;;;;;;;5.33;1.40;;;;;;;;;;4970025;28;20257;-86
2023/03/15 09:40:24;;;;;;;6.17;1.47;;;;;;;;;;4951393;28;20242;-86
2023/03/15 09:43:05;;;;;;;5.50;1.33;;;;;;;;;;4951774;28;20373;-86
2023/03/15 09:46:05;;;;;;;5.80;1.27;;;;;;;;;;4992194;28;20695;-86
2023/03/15 09:48:36;;;;;;;4.57;1.70;;;;;;;;;;4969368;28;20227;-85
2023/03/15 09:51:17;;;;;;;3.10;1.33;;;;;;;;;;4986875;28;20857;-88
2023/03/15 09:53:57;;;;;;;2.40;1.23;;;;;;;;;;4971666;28;20755;-88
2023/03/15 09:56:39;;;;;;;4.07;1.40;;;;;;;;;;4959051;28;20287;-88
2023/03/15 09:59:07;;;;;;;3.53;1.50;;;;;;;;;;4949705;28;20230;-88
2023/03/15 10:01:37;;;;;;;2.63;1.30;;;;;;;;;;4924437;28;20218;-88
2023/03/15 10:04:23;;;;;;;3.63;1.27;;;;;;;;;;4989399;28;20217;-84
2023/03/15 10:06:53;;;;;;;2.90;1.37;;;;;;;;;;4955693;28;20608;-86
2023/03/15 10:09:22;;;;;;;4.07;1.30;;;;;;;;;;4977825;28;20241;-87
2023/03/15 10:12:02;;;;;;;4.83;1.13;;;;;;;;;;4972194;28;20281;-86
2023/03/15 10:15:05;;;;;;;4.37;1.87;;;;;;;;;;4966830;28;20239;-88
2023/03/15 10:17:45;;;;;;;5.00;1.77;;;;;;;;;;4978836;28;20243;-82
2023/03/15 10:20:20;;;;;;;2.97;1.20;;;;;;;;;;4954316;28;20230;-87
2023/03/15 10:23:31;;;;;;;3.43;1.10;;;;;;;;;;4925201;28;20229;-83
2023/03/15 10:25:57;;;;;;;4.13;1.00;;;;;;;;;;4953756;28;20218;-86
2023/03/15 10:28:28;;;;;;;3.80;1.30;;;;;;;;;;4959534;28;20224;-87
2023/03/15 10:30:59;;;;;;;2.53;0.90;;;;;;;;;;4962714;28;20219;-88
2023/03/15 10:33:34;;;;;;;6.47;1.47;;;;;;;;;;4968802;28;21001;-87
2023/03/15 10:36:19;;;;;;;5.10;0.93;;;;;;;;;;4965681;28;20225;-88
2023/03/15 10:38:49;;;;;;;5.77;1.23;;;;;;;;;;4969702;28;20230;-85
2023/03/15 10:41:39;;;;;;;6.23;1.53;;;;;;;;;;4929056;28;20238;-87
2023/03/15 10:44:19;;;;;;;5.20;1.53;;;;;;;;;;4968474;28;20222;-87
2023/03/15 10:47:16;;;;;;;2.30;1.13;;;;;;;;;;4967695;28;20289;-82
2023/03/15 10:49:43;;;;;;;4.37;1.40;;;;;;;;;;4933580;28;20226;-85
2023/03/15 10:52:37;;;;;;;4.13;1.13;;;;;;;;;;4948522;28;20245;-87
2023/03/15 10:55:31;;;;;;;1.00;0.80;;;;;;;;;;4964873;28;20249;-86
2023/03/15 10:58:04;;;;;;;4.40;1.10;;;;;;;;;;4954026;28;20219;-87
2023/03/15 11:00:31;;;;;;;1.37;0.80;;;;;;;;;;4953226;28;20226;-83
2023/03/15 11:03:05;;;;;;;2.00;0.83;;;;;;;;;;4968657;28;20219;-83
2023/03/15 11:05:39;;;;;;;2.90;1.07;;;;;;;;;;4953630;28;20310;-85
2023/03/15 11:08:05;;;;;;;4.17;1.50;;;;;;;;;;4979848;28;20218;-85
2023/03/15 11:10:33;;;;;;;4.17;1.57;;;;;;;;;;4968091;28;20215;-87
2023/03/15 11:13:37;;;;;;;3.13;1.23;;;;;;;;;;4960869;28;20219;-86
2023/03/15 11:16:27;;;;;;;4.17;1.47;;;;;;;;;;4947544;28;20220;-83
2023/03/15 11:19:04;;;;;;;4.47;1.10;;;;;;;;;;4952749;28;20218;-84
2023/03/15 11:21:36;;;;;;;5.00;1.40;;;;;;;;;;4951842;28;20229;-88
2023/03/15 11:24:04;;;;;;;1.70;0.83;;;;;;;;;;4972026;28;20214;-86
2023/03/15 11:26:37;;;;;;;2.20;0.93;;;;;;;;;;4927991;28;20630;-85
2023/03/15 11:29:16;;;;;;;3.07;1.03;;;;;;;;;;4954084;28;20257;-86
2023/03/15 11:31:41;;;;;;;4.07;1.30;;;;;;;;;;4959956;28;20264;-87
2023/03/15 11:34:10;;;;;;;2.23;1.10;;;;;;;;;;4968432;28;20763;-86
2023/03/15 11:36:37;;;;;;;2.87;0.83;;;;;;;;;;4970609;28;20241;-87
2023/03/15 11:39:03;;;;;;;0.70;0.70;;;;;;;;;;4966652;28;20214;-88
2023/03/15 11:41:41;;;;;;;3.03;0.90;;;;;;;;;;4970339;28;20222;-88
2023/03/15 11:44:53;;;;;;;2.73;0.93;;;;;;;;;;4968975;28;20217;-88
2023/03/15 11:47:42;;;;;;;2.93;0.77;;;;;;;;;;4967447;28;20814;-90
2023/03/15 11:50:14;;;;;;;3.60;1.03;;;;;;;;;;4958275;28;20226;-88
2023/03/15 11:52:40;;;;;;;4.00;1.10;;;;;;;;;;4960658;28;20218;-89
2023/03/15 11:55:06;;;;;;;1.30;1.00;;;;;;;;;;4953069;28;20226;-86
2023/03/15 11:57:38;;;;;;;3.30;1.10;;;;;;;;;;4948451;28;20498;-89
2023/03/15 12:00:21;;;;;;;2.30;1.10;;;;;;;;;;4953339;28;20244;-90
2023/03/15 12:02:49;;;;;;;3.23;1.20;;;;;;;;;;4975340;28;20226;-86
2023/03/15 12:05:41;;;;;;;1.77;1.10;;;;;;;;;;4977951;28;20237;-88
2023/03/15 12:08:28;;;;;;;1.93;0.80;;;;;;;;;;4964021;28;20625;-88
2023/03/15 12:10:54;;;;;;;2.87;1.10;;;;;;;;;;4953012;28;20237;-85
2023/03/15 12:13:24;;;;;;;2.07;1.30;;;;;;;;;;4964738;28;20206;-86
2023/03/15 12:15:50;;;;;;;2.63;1.13;;;;;;;;;;4956331;28;20325;-87
2023/03/15 12:18:17;;;;;;;1.90;0.90;;;;;;;;;;4935152;28;20237;-87
2023/03/15 12:21:27;;;;;;;5.57;1.10;;;;;;;;;;4972618;28;20229;-88
2023/03/15 12:24:00;;;;;;;2.60;1.20;;;;;;;;;;4962979;28;20221;-85
2023/03/15 12:26:43;;;;;;;6.93;1.30;;;;;;;;;;4980630;28;20233;-86
2023/03/15 12:29:31;;;;;;;2.37;0.80;;;;;;;;;;4958210;28;20306;-88
2023/03/15 12:32:17;;;;;;;1.93;1.13;;;;;;;;;;4940129;28;20276;-85
2023/03/15 12:34:50;;;;;;;5.03;0.87;;;;;;;;;;4945817;28;20627;-87
2023/03/15 12:37:37;;;;;;;1.87;0.90;;;;;;;;;;4983011;28;20224;-85
2023/03/15 12:40:15;;;;;;;1.80;0.77;;;;;;;;;;4981642;28;20253;-86
2023/03/15 12:42:43;;;;;;;1.90;1.00;;;;;;;;;;4979070;28;20222;-89
2023/03/15 12:45:14;;;;;;;2.60;0.90;;;;;;;;;;4972564;28;20232;-85
2023/03/15 12:48:00;;;;;;;2.80;1.10;;;;;;;;;;4954693;28;20254;-85
2023/03/15 12:50:37;;;;;;;4.97;1.13;;;;;;;;;;4949754;28;20257;-87
2023/03/15 12:53:11;;;;;;;2.30;1.10;;;;;;;;;;4950010;28;20237;-86
2023/03/15 12:55:44;;;;;;;1.17;0.80;;;;;;;;;;4960883;28;20229;-86
2023/03/15 12:58:10;;;;;;;2.77;0.90;;;;;;;;;;4962445;28;20214;-82
2023/03/15 13:00:36;;;;;;;4.43;1.00;;;;;;;;;;4917978;28;20236;-85
2023/03/15 13:03:07;;;;;;;2.20;1.00;;;;;;;;;;4971267;28;20265;-83
2023/03/15 13:06:04;;;;;;;2.97;0.80;;;;;;;;;;4952186;28;20660;-87
2023/03/15 13:08:30;;;;;;;2.30;1.00;;;;;;;;;;4967621;28;20223;-86
2023/03/15 13:10:59;;;;;;;2.20;1.00;;;;;;;;;;4973433;28;20762;-89
2023/03/15 13:13:40;;;;;;;1.73;1.03;;;;;;;;;;4934112;28;20234;-87
2023/03/15 13:16:27;;;;;;;2.53;1.00;;;;;;;;;;4970727;28;20238;-85
2023/03/15 13:19:04;;;;;;;2.00;1.00;;;;;;;;;;4985604;28;20230;-86
2023/03/15 13:21:38;;;;;;;2.80;0.90;;;;;;;;;;4971804;28;20305;-86
2023/03/15 13:24:14;;;;;;;2.30;0.83;;;;;;;;;;4955660;28;20237;-88
2023/03/15 13:27:00;;;;;;;1.77;0.67;;;;;;;;;;4950413;28;20413;-88
2023/03/15 13:29:28;;;;;;;1.90;0.90;;;;;;;;;;4956757;28;20223;-89
2023/03/15 13:32:14;;;;;;;2.00;0.90;;;;;;;;;;4973646;28;20290;-88
2023/03/15 13:34:40;;;;;;;1.23;0.73;;;;;;;;;;4957055;28;20234;-86
2023/03/15 13:37:13;;;;;;;2.30;0.80;;;;;;;;;;4955802;28;20233;-88
2023/03/15 13:39:38;;;;;;;3.50;0.70;;;;;;;;;;4967143;28;20230;-87
2023/03/15 13:42:24;;;;;;;2.73;0.90;;;;;;;;;;4938298;28;20301;-89
2023/03/15 13:45:08;;;;;;;6.33;0.90;;;;;;;;;;4962144;28;20246;-88
2023/03/15 13:47:36;;;;;;;0.93;0.60;;;;;;;;;;4954002;28;20324;-88
2023/03/15 13:50:03;;;;;;;1.73;0.83;;;;;;;;;;4973043;28;20301;-84
2023/03/15 13:52:28;;;;;;;1.37;0.70;;;;;;;;;;4941849;28;20246;-88
2023/03/15 13:54:57;;;;;;;1.67;0.90;;;;;;;;;;4978669;28;20225;-89
2023/03/15 13:57:22;;;;;;;1.60;0.70;;;;;;;;;;4960008;28;23191;-89
2023/03/15 13:59:53;;;;;;;1.60;0.70;;;;;;;;;;4932168;28;20250;-85
2023/03/15 14:02:26;;;;;;;2.63;0.70;;;;;;;;;;4971431;28;20264;-87
2023/03/15 14:04:58;;;;;;;1.63;0.67;;;;;;;;;;4972946;28;20249;-87
2023/03/15 14:07:37;;;;;;;2.23;1.00;;;;;;;;;;4964903;28;20221;-87
2023/03/15 14:10:21;;;;;;;0.87;0.70;;;;;;;;;;4954078;28;20221;-87
2023/03/15 14:12:49;;;;;;;3.37;0.77;;;;;;;;;;4968762;28;20214;-87
2023/03/15 14:15:29;;;;;;;2.00;0.90;;;;;;;;;;4970794;28;20237;-86
2023/03/15 14:18:00;;;;;;;3.47;0.90;;;;;;;;;;4954391;28;20316;-86
2023/03/15 14:20:32;;;;;;;2.27;1.10;;;;;;;;;;4931218;28;20225;-88
2023/03/15 14:23:00;;;;;;;2.90;1.00;;;;;;;;;;4949254;28;20247;-89
2023/03/15 14:25:26;;;;;;;2.13;0.97;;;;;;;;;;4947357;28;20305;-88
2023/03/15 14:27:56;;;;;;;2.83;1.00;;;;;;;;;;4933689;28;20237;-88
2023/03/15 14:30:23;;;;;;;3.37;1.20;;;;;;;;;;4952754;28;20234;-84
2023/03/15 14:32:56;;;;;;;4.57;1.63;;;;;;;;;;4965327;28;20230;-85
2023/03/15 14:35:27;;;;;;;2.63;1.20;;;;;;;;;;4966950;28;20226;-87
2023/03/15 14:38:22;;;;;;;3.87;1.33;;;;;;;;;;4970895;28;20249;-88
2023/03/15 14:40:47;;;;;;;1.53;0.80;;;;;;;;;;4955865;28;20478;-86
2023/03/15 14:43:13;;;;;;;2.67;1.00;;;;;;;;;;4956071;28;20597;-84
2023/03/15 14:45:41;;;;;;;5.03;1.20;;;;;;;;;;4950449;28;20253;-84
2023/03/15 14:48:22;;;;;;;1.70;0.97;;;;;;;;;;4984784;28;20214;-88
2023/03/15 14:50:47;;;;;;;3.73;1.27;;;;;;;;;;4981629;28;20230;-87
2023/03/15 14:53:19;;;;;;;5.70;1.43;;;;;;;;;;4934528;28;20262;-86
2023/03/15 14:55:45;;;;;;;3.23;1.40;;;;;;;;;;4950384;28;20226;-87
2023/03/15 14:58:17;;;;;;;2.17;1.00;;;;;;;;;;4966650;28;20222;-88
2023/03/15 15:00:45;;;;;;;1.90;1.23;;;;;;;;;;4970154;28;20265;-84
2023/03/15 15:03:25;;;;;;;4.30;1.73;;;;;;;;;;4971092;28;20288;-87
2023/03/15 15:05:50;;;;;;;4.00;1.10;;;;;;;;;;4959085;28;20296;-88
2023/03/15 15:08:21;;;;;;;8.23;2.40;;;;;;;;;;4950366;28;20731;-89
2023/03/15 15:10:49;;;;;;;2.57;1.40;;;;;;;;;;4962579;28;20700;-84
2023/03/15 15:13:18;;;;;;;3.07;1.23;;;;;;;;;;4935054;28;20231;-84
2023/03/15 15:15:44;;;;;;;5.43;1.40;;;;;;;;;;4951393;28;20230;-84